Terminal Aerodrome Forecast
Issued by NWS

Home | Current Version | Previous Version | Text Only | Print | Product List | Glossary On
Versions: 1 2 3 4 5 6 7 8 9 10 11 12 13 14 15 16 17 18 19 20 21 22 23 24 25
000
FTUS44 KOUN 221121
TAFPNC
TAF
KPNC 221121Z 2212/2312 17009KT 2SM -DZ BR OVC004
     FM221600 27006KT 5SM BR OVC007
     FM221700 30010KT P6SM BKN100
     FM221800 31013G20KT P6SM SCT100
     FM222300 30005KT P6SM SCT250=

USA.gov is the U.S. government's official web portal to all federal, state and local government web resources and services.